sensor_id;sensor_type;location;lat;lon;timestamp;P1;durP1;ratioP1;P2;durP2;ratioP2
31848;SDS011;18414;59.352;18.152;2023-03-14T00:00:37;3.73;;;1.10;;
31848;SDS011;18414;59.352;18.152;2023-03-14T00:03:02;3.70;;;1.23;;
31848;SDS011;18414;59.352;18.152;2023-03-14T00:05:28;3.80;;;1.30;;
31848;SDS011;18414;59.352;18.152;2023-03-14T00:07:53;2.87;;;1.23;;
31848;SDS011;18414;59.352;18.152;2023-03-14T00:10:19;4.00;;;1.30;;
31848;SDS011;18414;59.352;18.152;2023-03-14T00:12:45;2.97;;;1.33;;
31848;SDS011;18414;59.352;18.152;2023-03-14T00:15:10;2.80;;;1.00;;
31848;SDS011;18414;59.352;18.152;2023-03-14T00:17:36;4.70;;;1.40;;
31848;SDS011;18414;59.352;18.152;2023-03-14T00:20:05;4.63;;;1.30;;
31848;SDS011;18414;59.352;18.152;2023-03-14T00:22:36;4.13;;;1.10;;
31848;SDS011;18414;59.352;18.152;2023-03-14T00:25:03;1.93;;;1.20;;
31848;SDS011;18414;59.352;18.152;2023-03-14T00:27:29;5.27;;;1.30;;
31848;SDS011;18414;59.352;18.152;2023-03-14T00:29:54;4.13;;;1.37;;
31848;SDS011;18414;59.352;18.152;2023-03-14T00:32:20;2.57;;;1.40;;
31848;SDS011;18414;59.352;18.152;2023-03-14T00:34:45;2.80;;;1.40;;
31848;SDS011;18414;59.352;18.152;2023-03-14T00:37:10;4.97;;;1.30;;
31848;SDS011;18414;59.352;18.152;2023-03-14T00:39:36;4.90;;;1.27;;
31848;SDS011;18414;59.352;18.152;2023-03-14T00:42:01;1.90;;;1.10;;
31848;SDS011;18414;59.352;18.152;2023-03-14T00:44:26;4.67;;;1.40;;
31848;SDS011;18414;59.352;18.152;2023-03-14T00:46:51;2.70;;;1.03;;
31848;SDS011;18414;59.352;18.152;2023-03-14T00:49:17;2.93;;;1.03;;
31848;SDS011;18414;59.352;18.152;2023-03-14T00:51:42;1.93;;;1.10;;
31848;SDS011;18414;59.352;18.152;2023-03-14T00:54:07;3.17;;;1.07;;
31848;SDS011;18414;59.352;18.152;2023-03-14T00:56:33;3.33;;;1.10;;
31848;SDS011;18414;59.352;18.152;2023-03-14T00:58:58;3.03;;;1.00;;
31848;SDS011;18414;59.352;18.152;2023-03-14T01:01:24;2.90;;;1.20;;
31848;SDS011;18414;59.352;18.152;2023-03-14T01:03:52;2.50;;;0.97;;
31848;SDS011;18414;59.352;18.152;2023-03-14T01:06:19;2.63;;;1.10;;
31848;SDS011;18414;59.352;18.152;2023-03-14T01:08:46;2.73;;;1.10;;
31848;SDS011;18414;59.352;18.152;2023-03-14T01:11:14;2.53;;;1.00;;
31848;SDS011;18414;59.352;18.152;2023-03-14T01:13:41;2.80;;;1.00;;
31848;SDS011;18414;59.352;18.152;2023-03-14T01:16:08;2.30;;;1.07;;
31848;SDS011;18414;59.352;18.152;2023-03-14T01:18:35;1.90;;;1.07;;
31848;SDS011;18414;59.352;18.152;2023-03-14T01:21:02;2.10;;;1.07;;
31848;SDS011;18414;59.352;18.152;2023-03-14T01:23:29;1.80;;;1.00;;
31848;SDS011;18414;59.352;18.152;2023-03-14T01:25:55;2.03;;;1.10;;
31848;SDS011;18414;59.352;18.152;2023-03-14T01:28:20;4.10;;;1.10;;
31848;SDS011;18414;59.352;18.152;2023-03-14T01:30:45;3.70;;;1.07;;
31848;SDS011;18414;59.352;18.152;2023-03-14T01:33:11;3.30;;;1.03;;
31848;SDS011;18414;59.352;18.152;2023-03-14T01:35:39;2.77;;;1.10;;
31848;SDS011;18414;59.352;18.152;2023-03-14T01:38:04;2.97;;;1.17;;
31848;SDS011;18414;59.352;18.152;2023-03-14T01:40:29;1.10;;;0.90;;
31848;SDS011;18414;59.352;18.152;2023-03-14T01:42:56;2.10;;;1.00;;
31848;SDS011;18414;59.352;18.152;2023-03-14T01:48:25;3.07;;;0.90;;
31848;SDS011;18414;59.352;18.152;2023-03-14T01:50:51;2.97;;;1.10;;
31848;SDS011;18414;59.352;18.152;2023-03-14T01:53:16;3.40;;;1.10;;
31848;SDS011;18414;59.352;18.152;2023-03-14T01:55:46;2.50;;;0.97;;
31848;SDS011;18414;59.352;18.152;2023-03-14T01:58:14;2.13;;;0.80;;
31848;SDS011;18414;59.352;18.152;2023-03-14T02:00:40;3.77;;;1.13;;
31848;SDS011;18414;59.352;18.152;2023-03-14T02:03:06;3.10;;;0.90;;
31848;SDS011;18414;59.352;18.152;2023-03-14T02:05:38;1.87;;;1.00;;
31848;SDS011;18414;59.352;18.152;2023-03-14T02:08:05;2.57;;;1.00;;
31848;SDS011;18414;59.352;18.152;2023-03-14T02:10:34;4.27;;;0.90;;
31848;SDS011;18414;59.352;18.152;2023-03-14T02:13:03;3.60;;;1.13;;
31848;SDS011;18414;59.352;18.152;2023-03-14T02:15:29;1.73;;;0.80;;
31848;SDS011;18414;59.352;18.152;2023-03-14T02:17:54;2.97;;;0.80;;
31848;SDS011;18414;59.352;18.152;2023-03-14T02:22:53;2.63;;;1.07;;
31848;SDS011;18414;59.352;18.152;2023-03-14T02:27:50;1.77;;;0.90;;
31848;SDS011;18414;59.352;18.152;2023-03-14T02:30:22;1.47;;;0.70;;
31848;SDS011;18414;59.352;18.152;2023-03-14T02:32:53;1.97;;;0.70;;
31848;SDS011;18414;59.352;18.152;2023-03-14T02:35:37;2.50;;;0.80;;
31848;SDS011;18414;59.352;18.152;2023-03-14T02:38:10;2.47;;;0.80;;
31848;SDS011;18414;59.352;18.152;2023-03-14T02:40:41;2.43;;;0.93;;
31848;SDS011;18414;59.352;18.152;2023-03-14T02:43:06;1.93;;;0.90;;
31848;SDS011;18414;59.352;18.152;2023-03-14T02:48:13;2.47;;;1.03;;
31848;SDS011;18414;59.352;18.152;2023-03-14T02:50:50;1.30;;;0.73;;
31848;SDS011;18414;59.352;18.152;2023-03-14T02:53:18;2.97;;;0.90;;
31848;SDS011;18414;59.352;18.152;2023-03-14T02:55:47;1.47;;;0.70;;
31848;SDS011;18414;59.352;18.152;2023-03-14T02:58:13;2.03;;;0.77;;
31848;SDS011;18414;59.352;18.152;2023-03-14T03:00:39;1.37;;;0.67;;
31848;SDS011;18414;59.352;18.152;2023-03-14T03:03:04;1.80;;;0.90;;
31848;SDS011;18414;59.352;18.152;2023-03-14T03:05:31;3.07;;;0.80;;
31848;SDS011;18414;59.352;18.152;2023-03-14T03:07:57;2.37;;;0.90;;
31848;SDS011;18414;59.352;18.152;2023-03-14T03:10:23;7.10;;;1.10;;
31848;SDS011;18414;59.352;18.152;2023-03-14T03:12:48;1.70;;;0.80;;
31848;SDS011;18414;59.352;18.152;2023-03-14T03:15:14;1.73;;;0.87;;
31848;SDS011;18414;59.352;18.152;2023-03-14T03:17:40;2.50;;;0.90;;
31848;SDS011;18414;59.352;18.152;2023-03-14T03:20:06;1.77;;;0.70;;
31848;SDS011;18414;59.352;18.152;2023-03-14T03:22:34;2.67;;;1.00;;
31848;SDS011;18414;59.352;18.152;2023-03-14T03:25:00;2.83;;;0.80;;
31848;SDS011;18414;59.352;18.152;2023-03-14T03:27:25;2.97;;;0.80;;
31848;SDS011;18414;59.352;18.152;2023-03-14T03:29:51;3.93;;;0.90;;
31848;SDS011;18414;59.352;18.152;2023-03-14T03:32:16;1.77;;;0.63;;
31848;SDS011;18414;59.352;18.152;2023-03-14T03:34:41;0.87;;;0.70;;
31848;SDS011;18414;59.352;18.152;2023-03-14T03:37:07;1.70;;;0.70;;
31848;SDS011;18414;59.352;18.152;2023-03-14T03:39:32;2.13;;;0.70;;
31848;SDS011;18414;59.352;18.152;2023-03-14T03:41:58;1.80;;;0.67;;
31848;SDS011;18414;59.352;18.152;2023-03-14T03:44:23;1.57;;;0.70;;
31848;SDS011;18414;59.352;18.152;2023-03-14T03:46:48;1.57;;;0.77;;
31848;SDS011;18414;59.352;18.152;2023-03-14T03:49:14;1.03;;;0.60;;
31848;SDS011;18414;59.352;18.152;2023-03-14T03:51:39;3.10;;;0.80;;
31848;SDS011;18414;59.352;18.152;2023-03-14T03:54:05;0.93;;;0.60;;
31848;SDS011;18414;59.352;18.152;2023-03-14T03:56:30;1.03;;;0.60;;
31848;SDS011;18414;59.352;18.152;2023-03-14T03:58:56;1.30;;;0.60;;
31848;SDS011;18414;59.352;18.152;2023-03-14T04:01:22;1.10;;;0.60;;
31848;SDS011;18414;59.352;18.152;2023-03-14T04:03:47;0.97;;;0.77;;
31848;SDS011;18414;59.352;18.152;2023-03-14T04:06:14;0.60;;;0.60;;
31848;SDS011;18414;59.352;18.152;2023-03-14T04:08:39;2.10;;;0.63;;
31848;SDS011;18414;59.352;18.152;2023-03-14T04:11:08;1.47;;;0.83;;
31848;SDS011;18414;59.352;18.152;2023-03-14T04:13:34;1.90;;;0.80;;
31848;SDS011;18414;59.352;18.152;2023-03-14T04:15:59;0.70;;;0.70;;
31848;SDS011;18414;59.352;18.152;2023-03-14T04:18:25;1.13;;;0.70;;
31848;SDS011;18414;59.352;18.152;2023-03-14T04:20:51;0.60;;;0.60;;
31848;SDS011;18414;59.352;18.152;2023-03-14T04:23:17;1.00;;;0.70;;
31848;SDS011;18414;59.352;18.152;2023-03-14T04:25:43;0.83;;;0.73;;
31848;SDS011;18414;59.352;18.152;2023-03-14T04:28:08;1.03;;;0.70;;
31848;SDS011;18414;59.352;18.152;2023-03-14T04:30:33;0.97;;;0.87;;
31848;SDS011;18414;59.352;18.152;2023-03-14T04:33:00;1.20;;;0.73;;
31848;SDS011;18414;59.352;18.152;2023-03-14T04:35:32;3.80;;;1.00;;
31848;SDS011;18414;59.352;18.152;2023-03-14T04:37:58;2.83;;;0.90;;
31848;SDS011;18414;59.352;18.152;2023-03-14T04:40:24;0.73;;;0.70;;
31848;SDS011;18414;59.352;18.152;2023-03-14T04:42:50;1.77;;;0.80;;
31848;SDS011;18414;59.352;18.152;2023-03-14T04:45:15;0.80;;;0.77;;
31848;SDS011;18414;59.352;18.152;2023-03-14T04:47:40;1.77;;;0.80;;
31848;SDS011;18414;59.352;18.152;2023-03-14T04:50:06;2.07;;;0.80;;
31848;SDS011;18414;59.352;18.152;2023-03-14T04:52:32;2.53;;;0.70;;
31848;SDS011;18414;59.352;18.152;2023-03-14T04:54:58;3.03;;;0.90;;
31848;SDS011;18414;59.352;18.152;2023-03-14T04:57:23;2.07;;;1.20;;
31848;SDS011;18414;59.352;18.152;2023-03-14T04:59:48;2.10;;;0.73;;
31848;SDS011;18414;59.352;18.152;2023-03-14T05:02:14;2.67;;;1.60;;
31848;SDS011;18414;59.352;18.152;2023-03-14T05:04:39;2.63;;;0.93;;
31848;SDS011;18414;59.352;18.152;2023-03-14T05:07:04;2.17;;;0.80;;
31848;SDS011;18414;59.352;18.152;2023-03-14T05:09:30;1.83;;;0.90;;
31848;SDS011;18414;59.352;18.152;2023-03-14T05:11:55;1.87;;;0.90;;
31848;SDS011;18414;59.352;18.152;2023-03-14T05:14:20;3.40;;;1.10;;
31848;SDS011;18414;59.352;18.152;2023-03-14T05:16:46;3.57;;;1.00;;
31848;SDS011;18414;59.352;18.152;2023-03-14T05:19:11;5.93;;;1.20;;
31848;SDS011;18414;59.352;18.152;2023-03-14T05:21:37;4.73;;;1.00;;
31848;SDS011;18414;59.352;18.152;2023-03-14T05:24:02;2.47;;;1.10;;
31848;SDS011;18414;59.352;18.152;2023-03-14T05:26:28;2.37;;;1.00;;
31848;SDS011;18414;59.352;18.152;2023-03-14T05:28:54;4.27;;;1.10;;
31848;SDS011;18414;59.352;18.152;2023-03-14T05:31:19;2.67;;;1.00;;
31848;SDS011;18414;59.352;18.152;2023-03-14T05:33:45;1.90;;;0.90;;
31848;SDS011;18414;59.352;18.152;2023-03-14T05:36:10;1.70;;;0.90;;
31848;SDS011;18414;59.352;18.152;2023-03-14T05:38:35;2.73;;;1.10;;
31848;SDS011;18414;59.352;18.152;2023-03-14T05:41:02;4.23;;;1.07;;
31848;SDS011;18414;59.352;18.152;2023-03-14T05:43:28;5.37;;;1.13;;
31848;SDS011;18414;59.352;18.152;2023-03-14T05:45:53;3.03;;;1.00;;
31848;SDS011;18414;59.352;18.152;2023-03-14T05:48:19;2.17;;;1.00;;
31848;SDS011;18414;59.352;18.152;2023-03-14T05:50:44;2.87;;;1.37;;
31848;SDS011;18414;59.352;18.152;2023-03-14T05:53:09;3.10;;;1.07;;
31848;SDS011;18414;59.352;18.152;2023-03-14T05:55:35;2.30;;;0.90;;
31848;SDS011;18414;59.352;18.152;2023-03-14T05:58:01;4.30;;;1.10;;
31848;SDS011;18414;59.352;18.152;2023-03-14T06:00:26;2.73;;;1.17;;
31848;SDS011;18414;59.352;18.152;2023-03-14T06:02:51;2.00;;;0.87;;
31848;SDS011;18414;59.352;18.152;2023-03-14T06:05:17;2.90;;;1.10;;
31848;SDS011;18414;59.352;18.152;2023-03-14T06:07:43;4.07;;;1.23;;
31848;SDS011;18414;59.352;18.152;2023-03-14T06:10:08;2.87;;;1.60;;
31848;SDS011;18414;59.352;18.152;2023-03-14T06:12:34;3.53;;;1.10;;
31848;SDS011;18414;59.352;18.152;2023-03-14T06:14:59;2.07;;;0.83;;
31848;SDS011;18414;59.352;18.152;2023-03-14T06:17:25;4.40;;;1.10;;
31848;SDS011;18414;59.352;18.152;2023-03-14T06:19:50;3.77;;;1.10;;
31848;SDS011;18414;59.352;18.152;2023-03-14T06:22:15;2.33;;;1.20;;
31848;SDS011;18414;59.352;18.152;2023-03-14T06:24:41;2.77;;;0.90;;
31848;SDS011;18414;59.352;18.152;2023-03-14T06:27:06;3.70;;;1.10;;
31848;SDS011;18414;59.352;18.152;2023-03-14T06:29:31;2.70;;;1.20;;
31848;SDS011;18414;59.352;18.152;2023-03-14T06:31:57;2.40;;;1.20;;
31848;SDS011;18414;59.352;18.152;2023-03-14T06:34:22;5.47;;;1.30;;
31848;SDS011;18414;59.352;18.152;2023-03-14T06:36:47;3.00;;;1.30;;
31848;SDS011;18414;59.352;18.152;2023-03-14T06:39:13;4.83;;;1.60;;
31848;SDS011;18414;59.352;18.152;2023-03-14T06:41:38;5.60;;;1.30;;
31848;SDS011;18414;59.352;18.152;2023-03-14T06:44:03;2.23;;;1.10;;
31848;SDS011;18414;59.352;18.152;2023-03-14T06:46:29;3.07;;;1.23;;
31848;SDS011;18414;59.352;18.152;2023-03-14T06:48:55;4.20;;;1.30;;
31848;SDS011;18414;59.352;18.152;2023-03-14T06:51:20;5.13;;;1.10;;
31848;SDS011;18414;59.352;18.152;2023-03-14T06:53:45;3.40;;;1.03;;
31848;SDS011;18414;59.352;18.152;2023-03-14T06:56:11;3.13;;;1.60;;
31848;SDS011;18414;59.352;18.152;2023-03-14T06:58:36;3.10;;;1.07;;
31848;SDS011;18414;59.352;18.152;2023-03-14T07:01:02;3.27;;;1.40;;
31848;SDS011;18414;59.352;18.152;2023-03-14T07:03:28;3.60;;;1.13;;
31848;SDS011;18414;59.352;18.152;2023-03-14T07:05:53;2.07;;;0.93;;
31848;SDS011;18414;59.352;18.152;2023-03-14T07:08:19;2.97;;;1.00;;
31848;SDS011;18414;59.352;18.152;2023-03-14T07:10:44;3.77;;;1.30;;
31848;SDS011;18414;59.352;18.152;2023-03-14T07:13:09;3.77;;;1.80;;
31848;SDS011;18414;59.352;18.152;2023-03-14T07:15:35;3.85;;;1.83;;
31848;SDS011;18414;59.352;18.152;2023-03-14T07:18:00;4.13;;;1.50;;
31848;SDS011;18414;59.352;18.152;2023-03-14T07:20:26;6.53;;;2.23;;
31848;SDS011;18414;59.352;18.152;2023-03-14T07:22:54;3.33;;;1.20;;
31848;SDS011;18414;59.352;18.152;2023-03-14T07:25:20;3.73;;;1.30;;
31848;SDS011;18414;59.352;18.152;2023-03-14T07:27:46;3.85;;;1.38;;
31848;SDS011;18414;59.352;18.152;2023-03-14T07:30:13;3.57;;;1.03;;
31848;SDS011;18414;59.352;18.152;2023-03-14T07:32:38;1.57;;;0.93;;
31848;SDS011;18414;59.352;18.152;2023-03-14T07:35:04;2.37;;;1.03;;
31848;SDS011;18414;59.352;18.152;2023-03-14T07:37:30;2.17;;;0.90;;
31848;SDS011;18414;59.352;18.152;2023-03-14T07:39:55;1.97;;;0.90;;
31848;SDS011;18414;59.352;18.152;2023-03-14T07:42:21;3.47;;;1.00;;
31848;SDS011;18414;59.352;18.152;2023-03-14T07:44:46;1.97;;;0.80;;
31848;SDS011;18414;59.352;18.152;2023-03-14T07:47:11;1.67;;;0.70;;
31848;SDS011;18414;59.352;18.152;2023-03-14T07:49:37;1.23;;;0.90;;
31848;SDS011;18414;59.352;18.152;2023-03-14T07:52:02;1.87;;;0.80;;
31848;SDS011;18414;59.352;18.152;2023-03-14T07:54:28;1.50;;;0.70;;
31848;SDS011;18414;59.352;18.152;2023-03-14T07:56:53;2.90;;;0.70;;
31848;SDS011;18414;59.352;18.152;2023-03-14T07:59:18;0.83;;;0.67;;
31848;SDS011;18414;59.352;18.152;2023-03-14T08:01:44;2.00;;;0.60;;
31848;SDS011;18414;59.352;18.152;2023-03-14T08:04:09;1.07;;;0.60;;
31848;SDS011;18414;59.352;18.152;2023-03-14T08:06:35;0.60;;;0.57;;
31848;SDS011;18414;59.352;18.152;2023-03-14T08:09:02;2.83;;;0.67;;
31848;SDS011;18414;59.352;18.152;2023-03-14T08:11:28;0.70;;;0.60;;
31848;SDS011;18414;59.352;18.152;2023-03-14T08:13:53;1.73;;;0.70;;
31848;SDS011;18414;59.352;18.152;2023-03-14T08:16:19;1.37;;;0.63;;
31848;SDS011;18414;59.352;18.152;2023-03-14T08:18:45;2.47;;;0.83;;
31848;SDS011;18414;59.352;18.152;2023-03-14T08:21:10;2.23;;;0.73;;
31848;SDS011;18414;59.352;18.152;2023-03-14T08:23:37;10.60;;;0.70;;
31848;SDS011;18414;59.352;18.152;2023-03-14T08:26:02;1.27;;;0.50;;
31848;SDS011;18414;59.352;18.152;2023-03-14T08:28:27;1.53;;;0.50;;
31848;SDS011;18414;59.352;18.152;2023-03-14T08:30:58;3.20;;;0.80;;
31848;SDS011;18414;59.352;18.152;2023-03-14T08:33:24;2.50;;;0.70;;
31848;SDS011;18414;59.352;18.152;2023-03-14T08:35:53;0.70;;;0.50;;
31848;SDS011;18414;59.352;18.152;2023-03-14T08:38:19;1.80;;;0.63;;
31848;SDS011;18414;59.352;18.152;2023-03-14T08:40:44;0.67;;;0.60;;
31848;SDS011;18414;59.352;18.152;2023-03-14T08:43:10;2.10;;;0.60;;
31848;SDS011;18414;59.352;18.152;2023-03-14T08:45:35;2.43;;;0.50;;
31848;SDS011;18414;59.352;18.152;2023-03-14T08:48:01;0.80;;;0.67;;
31848;SDS011;18414;59.352;18.152;2023-03-14T08:50:28;2.10;;;0.60;;
31848;SDS011;18414;59.352;18.152;2023-03-14T08:52:53;0.90;;;0.70;;
31848;SDS011;18414;59.352;18.152;2023-03-14T08:55:19;1.23;;;0.50;;
31848;SDS011;18414;59.352;18.152;2023-03-14T08:57:45;1.20;;;0.80;;
31848;SDS011;18414;59.352;18.152;2023-03-14T09:00:10;2.03;;;0.70;;
31848;SDS011;18414;59.352;18.152;2023-03-14T09:02:39;0.60;;;0.50;;
31848;SDS011;18414;59.352;18.152;2023-03-14T09:05:10;1.40;;;0.70;;
31848;SDS011;18414;59.352;18.152;2023-03-14T09:07:36;1.27;;;0.50;;
31848;SDS011;18414;59.352;18.152;2023-03-14T09:10:02;2.00;;;0.80;;
31848;SDS011;18414;59.352;18.152;2023-03-14T09:12:28;0.77;;;0.73;;
31848;SDS011;18414;59.352;18.152;2023-03-14T09:14:53;1.30;;;0.73;;
31848;SDS011;18414;59.352;18.152;2023-03-14T09:17:18;3.33;;;0.70;;
31848;SDS011;18414;59.352;18.152;2023-03-14T09:19:44;0.63;;;0.60;;
31848;SDS011;18414;59.352;18.152;2023-03-14T09:22:09;1.20;;;0.60;;
31848;SDS011;18414;59.352;18.152;2023-03-14T09:24:34;0.93;;;0.50;;
31848;SDS011;18414;59.352;18.152;2023-03-14T09:27:00;0.67;;;0.50;;
31848;SDS011;18414;59.352;18.152;2023-03-14T09:29:25;1.50;;;0.60;;
31848;SDS011;18414;59.352;18.152;2023-03-14T09:31:51;0.50;;;0.50;;
31848;SDS011;18414;59.352;18.152;2023-03-14T09:34:16;0.83;;;0.60;;
31848;SDS011;18414;59.352;18.152;2023-03-14T09:36:42;0.73;;;0.50;;
31848;SDS011;18414;59.352;18.152;2023-03-14T09:39:11;0.60;;;0.50;;
31848;SDS011;18414;59.352;18.152;2023-03-14T09:41:37;0.57;;;0.50;;
31848;SDS011;18414;59.352;18.152;2023-03-14T09:44:49;0.80;;;0.50;;
31848;SDS011;18414;59.352;18.152;2023-03-14T09:46:54;0.40;;;0.40;;
31848;SDS011;18414;59.352;18.152;2023-03-14T09:49:31;1.30;;;0.70;;
31848;SDS011;18414;59.352;18.152;2023-03-14T09:51:59;2.00;;;0.60;;
31848;SDS011;18414;59.352;18.152;2023-03-14T09:54:36;0.50;;;0.40;;
31848;SDS011;18414;59.352;18.152;2023-03-14T09:57:04;1.00;;;0.60;;
31848;SDS011;18414;59.352;18.152;2023-03-14T09:59:30;0.53;;;0.40;;
31848;SDS011;18414;59.352;18.152;2023-03-14T10:01:58;0.60;;;0.40;;
31848;SDS011;18414;59.352;18.152;2023-03-14T10:04:25;0.40;;;0.40;;
31848;SDS011;18414;59.352;18.152;2023-03-14T10:06:50;0.40;;;0.40;;
31848;SDS011;18414;59.352;18.152;2023-03-14T10:09:23;0.57;;;0.47;;
31848;SDS011;18414;59.352;18.152;2023-03-14T10:11:55;0.47;;;0.47;;
31848;SDS011;18414;59.352;18.152;2023-03-14T10:14:32;0.50;;;0.50;;
31848;SDS011;18414;59.352;18.152;2023-03-14T10:17:05;2.43;;;0.60;;
31848;SDS011;18414;59.352;18.152;2023-03-14T10:19:36;0.77;;;0.77;;
31848;SDS011;18414;59.352;18.152;2023-03-14T10:22:02;0.57;;;0.40;;
31848;SDS011;18414;59.352;18.152;2023-03-14T10:24:33;0.90;;;0.60;;
31848;SDS011;18414;59.352;18.152;2023-03-14T10:27:01;0.53;;;0.53;;
31848;SDS011;18414;59.352;18.152;2023-03-14T10:29:32;0.60;;;0.60;;
31848;SDS011;18414;59.352;18.152;2023-03-14T10:32:05;4.10;;;0.70;;
31848;SDS011;18414;59.352;18.152;2023-03-14T10:34:35;0.50;;;0.50;;
31848;SDS011;18414;59.352;18.152;2023-03-14T10:37:16;1.17;;;0.60;;
31848;SDS011;18414;59.352;18.152;2023-03-14T10:39:50;0.70;;;0.67;;
31848;SDS011;18414;59.352;18.152;2023-03-14T10:42:27;0.50;;;0.50;;
31848;SDS011;18414;59.352;18.152;2023-03-14T10:44:55;0.90;;;0.50;;
31848;SDS011;18414;59.352;18.152;2023-03-14T10:47:22;0.70;;;0.70;;
31848;SDS011;18414;59.352;18.152;2023-03-14T10:49:49;0.53;;;0.53;;
31848;SDS011;18414;59.352;18.152;2023-03-14T10:54:54;0.60;;;0.60;;
31848;SDS011;18414;59.352;18.152;2023-03-14T10:57:22;0.67;;;0.40;;
31848;SDS011;18414;59.352;18.152;2023-03-14T10:59:48;0.50;;;0.50;;
31848;SDS011;18414;59.352;18.152;2023-03-14T11:05:38;0.63;;;0.50;;
31848;SDS011;18414;59.352;18.152;2023-03-14T11:08:10;0.57;;;0.57;;
31848;SDS011;18414;59.352;18.152;2023-03-14T11:10:39;1.90;;;0.60;;
31848;SDS011;18414;59.352;18.152;2023-03-14T11:38:00;0.50;;;0.50;;
31848;SDS011;18414;59.352;18.152;2023-03-14T11:40:30;0.70;;;0.63;;
31848;SDS011;18414;59.352;18.152;2023-03-14T11:43:02;1.70;;;0.60;;
31848;SDS011;18414;59.352;18.152;2023-03-14T11:45:30;1.57;;;0.60;;
31848;SDS011;18414;59.352;18.152;2023-03-14T11:50:46;1.30;;;0.60;;
31848;SDS011;18414;59.352;18.152;2023-03-14T11:53:16;1.23;;;0.60;;
31848;SDS011;18414;59.352;18.152;2023-03-14T11:55:45;1.13;;;0.70;;
31848;SDS011;18414;59.352;18.152;2023-03-14T11:58:14;0.57;;;0.57;;
31848;SDS011;18414;59.352;18.152;2023-03-14T12:00:42;0.87;;;0.60;;
31848;SDS011;18414;59.352;18.152;2023-03-14T12:03:12;2.80;;;1.13;;
31848;SDS011;18414;59.352;18.152;2023-03-14T12:05:45;0.70;;;0.70;;
31848;SDS011;18414;59.352;18.152;2023-03-14T12:10:46;1.80;;;0.97;;
31848;SDS011;18414;59.352;18.152;2023-03-14T12:13:14;1.00;;;0.90;;
31848;SDS011;18414;59.352;18.152;2023-03-14T12:16:04;1.17;;;0.93;;
31848;SDS011;18414;59.352;18.152;2023-03-14T12:18:51;2.70;;;0.80;;
31848;SDS011;18414;59.352;18.152;2023-03-14T12:21:17;1.30;;;0.70;;
31848;SDS011;18414;59.352;18.152;2023-03-14T12:26:22;1.80;;;0.70;;
31848;SDS011;18414;59.352;18.152;2023-03-14T12:36:53;2.53;;;0.80;;
31848;SDS011;18414;59.352;18.152;2023-03-14T12:42:05;0.70;;;0.70;;
31848;SDS011;18414;59.352;18.152;2023-03-14T12:44:39;1.37;;;0.90;;
31848;SDS011;18414;59.352;18.152;2023-03-14T12:47:36;0.70;;;0.70;;
31848;SDS011;18414;59.352;18.152;2023-03-14T12:50:07;0.80;;;0.70;;
31848;SDS011;18414;59.352;18.152;2023-03-14T12:52:41;0.70;;;0.70;;
31848;SDS011;18414;59.352;18.152;2023-03-14T12:55:21;0.70;;;0.70;;
31848;SDS011;18414;59.352;18.152;2023-03-14T13:00:34;0.80;;;0.80;;
31848;SDS011;18414;59.352;18.152;2023-03-14T13:03:12;0.83;;;0.80;;
31848;SDS011;18414;59.352;18.152;2023-03-14T13:05:59;1.40;;;1.00;;
31848;SDS011;18414;59.352;18.152;2023-03-14T13:08:33;1.20;;;1.10;;
31848;SDS011;18414;59.352;18.152;2023-03-14T13:11:18;1.13;;;0.97;;
31848;SDS011;18414;59.352;18.152;2023-03-14T13:13:45;1.30;;;0.83;;
31848;SDS011;18414;59.352;18.152;2023-03-14T13:16:15;2.13;;;1.00;;
31848;SDS011;18414;59.352;18.152;2023-03-14T13:18:43;1.03;;;0.90;;
31848;SDS011;18414;59.352;18.152;2023-03-14T13:24:01;1.23;;;1.10;;
31848;SDS011;18414;59.352;18.152;2023-03-14T13:26:34;1.07;;;0.93;;
31848;SDS011;18414;59.352;18.152;2023-03-14T13:29:08;2.30;;;1.00;;
31848;SDS011;18414;59.352;18.152;2023-03-14T13:31:34;1.20;;;0.90;;
31848;SDS011;18414;59.352;18.152;2023-03-14T13:34:01;1.40;;;1.00;;
31848;SDS011;18414;59.352;18.152;2023-03-14T13:36:29;0.93;;;0.90;;
31848;SDS011;18414;59.352;18.152;2023-03-14T13:38:55;5.43;;;1.10;;
31848;SDS011;18414;59.352;18.152;2023-03-14T13:41:22;1.47;;;0.90;;
31848;SDS011;18414;59.352;18.152;2023-03-14T13:43:48;1.67;;;1.03;;
31848;SDS011;18414;59.352;18.152;2023-03-14T13:46:14;2.30;;;0.90;;
31848;SDS011;18414;59.352;18.152;2023-03-14T13:48:43;1.73;;;0.90;;
31848;SDS011;18414;59.352;18.152;2023-03-14T13:51:20;3.67;;;1.10;;
31848;SDS011;18414;59.352;18.152;2023-03-14T13:53:50;1.83;;;1.10;;
31848;SDS011;18414;59.352;18.152;2023-03-14T13:56:17;5.17;;;1.20;;
31848;SDS011;18414;59.352;18.152;2023-03-14T13:58:43;1.30;;;1.20;;
31848;SDS011;18414;59.352;18.152;2023-03-14T14:01:16;1.57;;;1.23;;
31848;SDS011;18414;59.352;18.152;2023-03-14T14:03:42;2.07;;;1.00;;
31848;SDS011;18414;59.352;18.152;2023-03-14T14:08:50;1.60;;;1.20;;
31848;SDS011;18414;59.352;18.152;2023-03-14T14:11:22;1.07;;;0.90;;
31848;SDS011;18414;59.352;18.152;2023-03-14T14:14:01;1.40;;;1.20;;
31848;SDS011;18414;59.352;18.152;2023-03-14T14:16:27;1.20;;;1.10;;
31848;SDS011;18414;59.352;18.152;2023-03-14T14:18:53;1.80;;;0.97;;
31848;SDS011;18414;59.352;18.152;2023-03-14T14:21:20;2.23;;;1.10;;
31848;SDS011;18414;59.352;18.152;2023-03-14T14:23:45;1.60;;;1.20;;
31848;SDS011;18414;59.352;18.152;2023-03-14T14:26:14;1.00;;;0.93;;
31848;SDS011;18414;59.352;18.152;2023-03-14T14:28:43;2.07;;;1.00;;
31848;SDS011;18414;59.352;18.152;2023-03-14T14:36:31;1.57;;;1.00;;
31848;SDS011;18414;59.352;18.152;2023-03-14T14:39:20;1.03;;;1.00;;
31848;SDS011;18414;59.352;18.152;2023-03-14T14:41:49;2.33;;;1.10;;
31848;SDS011;18414;59.352;18.152;2023-03-14T14:44:34;1.00;;;0.90;;
31848;SDS011;18414;59.352;18.152;2023-03-14T14:47:01;1.90;;;1.10;;
31848;SDS011;18414;59.352;18.152;2023-03-14T14:49:30;1.30;;;1.10;;
31848;SDS011;18414;59.352;18.152;2023-03-14T14:52:11;2.23;;;0.97;;
31848;SDS011;18414;59.352;18.152;2023-03-14T14:54:42;1.67;;;1.10;;
31848;SDS011;18414;59.352;18.152;2023-03-14T14:57:20;1.50;;;1.10;;
31848;SDS011;18414;59.352;18.152;2023-03-14T15:00:04;1.07;;;0.90;;
31848;SDS011;18414;59.352;18.152;2023-03-14T15:02:38;2.63;;;1.13;;
31848;SDS011;18414;59.352;18.152;2023-03-14T15:05:17;1.10;;;1.00;;
31848;SDS011;18414;59.352;18.152;2023-03-14T15:07:43;1.33;;;1.10;;
31848;SDS011;18414;59.352;18.152;2023-03-14T15:10:10;1.67;;;1.00;;
31848;SDS011;18414;59.352;18.152;2023-03-14T15:12:36;1.10;;;1.00;;
31848;SDS011;18414;59.352;18.152;2023-03-14T15:15:02;1.20;;;1.00;;
31848;SDS011;18414;59.352;18.152;2023-03-14T15:17:27;1.10;;;1.00;;
31848;SDS011;18414;59.352;18.152;2023-03-14T15:19:52;1.10;;;1.00;;
31848;SDS011;18414;59.352;18.152;2023-03-14T15:22:18;1.30;;;1.20;;
31848;SDS011;18414;59.352;18.152;2023-03-14T15:24:43;1.10;;;0.93;;
31848;SDS011;18414;59.352;18.152;2023-03-14T15:27:11;1.40;;;1.00;;
31848;SDS011;18414;59.352;18.152;2023-03-14T15:29:39;1.53;;;1.03;;
31848;SDS011;18414;59.352;18.152;2023-03-14T15:32:04;1.20;;;1.10;;
31848;SDS011;18414;59.352;18.152;2023-03-14T15:34:30;1.47;;;1.10;;
31848;SDS011;18414;59.352;18.152;2023-03-14T15:36:55;1.57;;;1.20;;
31848;SDS011;18414;59.352;18.152;2023-03-14T15:39:20;1.73;;;1.30;;
31848;SDS011;18414;59.352;18.152;2023-03-14T15:41:46;1.40;;;1.30;;
31848;SDS011;18414;59.352;18.152;2023-03-14T15:44:11;1.80;;;1.50;;
31848;SDS011;18414;59.352;18.152;2023-03-14T15:46:36;1.80;;;1.17;;
31848;SDS011;18414;59.352;18.152;2023-03-14T15:49:02;2.07;;;1.30;;